Time;durP1;ratioP1;P1;durP2;ratioP2;P2;SDS_P1;SDS_P2;PMS_P1;PMS_P2;Temp;Humidity;BMP_temperature;BMP_pressure;BME280_temperature;BME280_humidity;BME280_pressure;Samples;Min_cycle;Max_cycle;Signal;HPM_P1;HPM_P2
2023/03/16 00:00:27;;;;;;;;;;;6.70;99.90;;;;;;6094192;23;19931;-91
2023/03/16 00:09:34;;;;;;;;;;;6.70;99.90;;;;;;5985763;23;20335;-92
2023/03/16 00:15:31;;;;;;;;;;;8.00;99.90;;;;;;6100782;23;19933;-91
2023/03/16 00:18:10;;;;;;;;;;;;;;;;;;;;;
2023/03/16 00:21:01;;;;;;;;;;;6.20;99.90;;;;;;5984726;24;19955;-90
2023/03/16 00:23:34;;;;;;;;;;;6.80;99.90;;;;;;5982092;24;19907;-91
2023/03/16 00:29:34;;;;;;;;;;;7.60;99.90;;;;;;6095772;23;19931;-90
2023/03/16 00:35:03;;;;;;;;;;;6.80;99.90;;;;;;6090137;23;19905;-91
2023/03/16 00:37:35;;;;;;;;;;;6.80;99.90;;;;;;6125575;23;19980;-90
2023/03/16 00:40:15;;;;;;;;;;;;;;;;;;;;;
2023/03/16 00:43:06;;;;;;;;;;;6.80;99.90;;;;;;6094959;23;19996;-92
2023/03/16 00:45:35;;;;;;;;;;;6.80;99.90;;;;;;6097781;23;19909;-89
2023/03/16 00:48:06;;;;;;;;;;;5.90;99.90;;;;;;6184776;23;19908;-90
2023/03/16 00:50:34;;;;;;;;;;;6.70;99.90;;;;;;6186099;23;19912;-90
2023/03/16 00:53:06;;;;;;;;;;;7.30;99.90;;;;;;6186083;23;19915;-90
2023/03/16 00:55:37;;;;;;;;;;;6.50;99.90;;;;;;6185504;23;19904;-89
2023/03/16 00:58:09;;;;;;;;;;;6.60;99.90;;;;;;6185739;23;19904;-89
2023/03/16 01:00:39;;;;;;;;;;;7.10;99.90;;;;;;6185483;23;19908;-91
2023/03/16 01:03:10;;;;;;;;;;;6.70;99.90;;;;;;6185686;23;19904;-91
2023/03/16 01:05:41;;;;;;;;;;;6.30;99.90;;;;;;6251893;22;20002;-89
2023/03/16 01:08:10;;;;;;;;;;;6.70;99.90;;;;;;6310097;22;19926;-91
2023/03/16 01:10:44;;;;;;;;;;;7.50;99.90;;;;;;6309273;22;20049;-91
2023/03/16 01:13:12;;;;;;;;;;;6.70;99.90;;;;;;6309815;22;19977;-90
2023/03/16 01:15:44;;;;;;;;;;;6.50;99.90;;;;;;6311697;22;19956;-89
2023/03/16 01:18:15;;;;;;;;;;;7.30;99.90;;;;;;6309767;22;19910;-90
2023/03/16 01:20:49;;;;;;;;;;;6.70;99.90;;;;;;6309472;22;19906;-90
2023/03/16 01:23:18;;;;;;;;;;;7.10;99.90;;;;;;6256221;22;19911;-90
2023/03/16 01:25:51;;;;;;;;;;;7.30;99.90;;;;;;6309559;22;19903;-90
2023/03/16 01:28:22;;;;;;;;;;;6.70;99.90;;;;;;6295616;22;19903;-90
2023/03/16 01:30:47;;;;;;;;;;;6.70;99.90;;;;;;6229690;22;20334;-91
2023/03/16 01:33:18;;;;;;;;;;;7.50;99.90;;;;;;6309898;22;19903;-90
2023/03/16 01:36:16;;;;;;;;;;;6.70;99.90;;;;;;6309111;22;20316;-90
2023/03/16 01:38:48;;;;;;;;;;;6.70;99.90;;;;;;6243675;22;20235;-90
2023/03/16 01:41:19;;;;;;;;;;;6.80;99.90;;;;;;6317667;22;19998;-91
2023/03/16 01:43:50;;;;;;;;;;;6.40;99.90;;;;;;6340989;22;19906;-91
2023/03/16 01:46:21;;;;;;;;;;;7.20;99.90;;;;;;6340791;22;19907;-90
2023/03/16 01:49:22;;;;;;;;;;;6.90;99.90;;;;;;6341662;22;19902;-91
2023/03/16 01:52:01;;;;;;;;;;;6.90;99.90;;;;;;6342046;22;20315;-90
2023/03/16 01:57:35;;;;;;;;;;;;;;;;;;;;;
2023/03/16 02:00:40;;;;;;;;;;;;;;;;;;;;;
2023/03/16 02:03:25;;;;;;;;;;;7.00;99.90;;;;;;6275894;22;20446;-91
2023/03/16 02:09:00;;;;;;;;;;;7.00;99.90;;;;;;6278198;22;19997;-90
2023/03/16 02:11:39;;;;;;;;;;;;;;;;;;;;;
2023/03/16 02:14:26;;;;;;;;;;;6.50;99.90;;;;;;6154468;23;19976;-90
2023/03/16 02:17:01;;;;;;;;;;;7.00;99.90;;;;;;6163596;23;19959;-89
2023/03/16 02:26:06;;;;;;;;;;;7.00;99.90;;;;;;6214936;23;19946;-90
2023/03/16 02:31:37;;;;;;;;;;;7.00;99.90;;;;;;6287071;22;19969;-91
2023/03/16 02:34:06;;;;;;;;;;;7.00;99.90;;;;;;6340906;22;19910;-90
2023/03/16 02:36:39;;;;;;;;;;;6.60;99.90;;;;;;6340577;22;19903;-91
2023/03/16 02:39:07;;;;;;;;;;;7.00;99.90;;;;;;6340742;22;19902;-90
2023/03/16 02:41:40;;;;;;;;;;;7.00;99.90;;;;;;6340022;22;20307;-90
2023/03/16 02:44:13;;;;;;;;;;;6.50;99.90;;;;;;6340269;22;19907;-91
2023/03/16 02:46:42;;;;;;;;;;;8.00;99.90;;;;;;6340146;22;19906;-89
2023/03/16 02:49:39;;;;;;;;;;;8.00;99.90;;;;;;6340526;22;19937;-91
2023/03/16 02:52:11;;;;;;;;;;;7.40;99.90;;;;;;6342516;22;19909;-90
2023/03/16 02:54:44;;;;;;;;;;;7.00;99.90;;;;;;6340299;22;19948;-91
2023/03/16 02:57:10;;;;;;;;;;;7.00;99.90;;;;;;6340332;22;19977;-91
2023/03/16 03:03:11;;;;;;;;;;;7.00;99.90;;;;;;6246421;23;19915;-91
2023/03/16 03:05:37;;;;;;;;;;;7.10;99.90;;;;;;6244874;23;20339;-90
2023/03/16 03:08:05;;;;;;;;;;;7.10;99.90;;;;;;6245168;23;20415;-91
2023/03/16 03:10:31;;;;;;;;;;;7.00;99.90;;;;;;6244416;23;20328;-89
2023/03/16 03:13:06;;;;;;;;;;;7.90;99.90;;;;;;6266487;22;19965;-90
2023/03/16 03:15:36;;;;;;;;;;;7.40;99.90;;;;;;6275606;22;19904;-90
2023/03/16 03:18:01;;;;;;;;;;;8.10;99.90;;;;;;6275741;22;19911;-91
2023/03/16 03:20:33;;;;;;;;;;;8.10;99.90;;;;;;6275640;22;19903;-92
2023/03/16 03:23:16;;;;;;;;;;;;;;;;;;;;;
2023/03/16 03:25:52;;;;;;;;;;;;;;;;;;;;;
2023/03/16 03:28:18;;;;;;;;;;;8.00;99.90;;;;;;6214208;23;20427;-91
2023/03/16 03:34:25;;;;;;;;;;;6.40;99.90;;;;;;6214131;23;19943;-92
2023/03/16 03:36:52;;;;;;;;;;;7.10;99.90;;;;;;6220714;23;19908;-90
2023/03/16 03:39:21;;;;;;;;;;;7.10;99.90;;;;;;6244867;23;19908;-91
2023/03/16 03:41:53;;;;;;;;;;;7.10;99.90;;;;;;6244293;23;19991;-90
2023/03/16 03:44:23;;;;;;;;;;;6.90;99.90;;;;;;6243942;23;19908;-91
2023/03/16 03:46:55;;;;;;;;;;;6.90;99.90;;;;;;6244422;23;19903;-90
2023/03/16 03:49:26;;;;;;;;;;;7.00;99.90;;;;;;6244417;23;19912;-89
2023/03/16 03:51:55;;;;;;;;;;;6.70;99.90;;;;;;6244189;23;19908;-90
2023/03/16 03:54:26;;;;;;;;;;;7.20;99.90;;;;;;6244293;23;19979;-90
2023/03/16 03:56:55;;;;;;;;;;;7.00;99.90;;;;;;6244827;23;19903;-91
2023/03/16 03:59:21;;;;;;;;;;;7.00;99.90;;;;;;6300143;22;19910;-91
2023/03/16 04:01:53;;;;;;;;;;;6.30;99.90;;;;;;6340203;22;19973;-90
2023/03/16 04:04:24;;;;;;;;;;;7.00;99.90;;;;;;6340122;22;19903;-91
2023/03/16 04:06:54;;;;;;;;;;;7.00;99.90;;;;;;6339838;22;19903;-92
2023/03/16 04:09:25;;;;;;;;;;;7.00;99.90;;;;;;6339977;22;19902;-91
2023/03/16 04:11:59;;;;;;;;;;;6.80;99.90;;;;;;6340049;22;20381;-93
2023/03/16 04:14:27;;;;;;;;;;;7.80;99.90;;;;;;6339875;22;19902;-92
2023/03/16 04:16:56;;;;;;;;;;;7.50;99.90;;;;;;6340024;22;19903;-92
2023/03/16 04:19:27;;;;;;;;;;;7.60;99.90;;;;;;6341597;22;19985;-91
2023/03/16 04:21:59;;;;;;;;;;;7.50;99.90;;;;;;6342320;22;19937;-91
2023/03/16 04:24:27;;;;;;;;;;;7.20;99.90;;;;;;6342284;22;19956;-90
2023/03/16 04:26:58;;;;;;;;;;;6.40;99.90;;;;;;6341844;22;19902;-90
2023/03/16 04:29:30;;;;;;;;;;;6.90;99.90;;;;;;6341791;22;20223;-91
2023/03/16 04:32:02;;;;;;;;;;;6.90;99.90;;;;;;6341443;22;19933;-89
2023/03/16 04:34:31;;;;;;;;;;;7.80;99.90;;;;;;6341335;22;19906;-90
2023/03/16 04:37:02;;;;;;;;;;;8.20;99.90;;;;;;6342025;22;19913;-89
2023/03/16 04:39:32;;;;;;;;;;;6.90;99.90;;;;;;6341454;22;19910;-92
2023/03/16 04:42:01;;;;;;;;;;;7.00;99.90;;;;;;6341563;22;19978;-90
2023/03/16 04:44:32;;;;;;;;;;;6.20;99.90;;;;;;6341739;22;20236;-91
2023/03/16 04:47:04;;;;;;;;;;;7.00;99.90;;;;;;6341409;22;19902;-91
2023/03/16 04:49:33;;;;;;;;;;;7.50;99.90;;;;;;6340886;22;19907;-91
2023/03/16 04:52:05;;;;;;;;;;;7.00;99.90;;;;;;6342289;22;19937;-90
2023/03/16 04:54:36;;;;;;;;;;;7.00;99.90;;;;;;6341268;22;20375;-91
2023/03/16 04:57:37;;;;;;;;;;;6.70;99.90;;;;;;6341850;22;20230;-91
2023/03/16 05:00:11;;;;;;;;;;;7.20;99.90;;;;;;6341005;22;19907;-92
2023/03/16 05:02:38;;;;;;;;;;;7.00;99.90;;;;;;6260852;22;19902;-90
2023/03/16 05:05:07;;;;;;;;;;;7.00;99.90;;;;;;6341539;22;19903;-91
2023/03/16 05:07:40;;;;;;;;;;;6.90;99.90;;;;;;6341226;22;19934;-92
2023/03/16 05:10:12;;;;;;;;;;;6.90;99.90;;;;;;6341472;22;20318;-92
2023/03/16 05:12:45;;;;;;;;;;;7.20;99.90;;;;;;6340621;22;19977;-91
2023/03/16 05:15:11;;;;;;;;;;;6.80;99.90;;;;;;6261249;22;19910;-90
2023/03/16 05:17:42;;;;;;;;;;;7.90;99.90;;;;;;6341091;22;20196;-92
2023/03/16 05:20:15;;;;;;;;;;;6.60;99.90;;;;;;6340671;22;19956;-91
2023/03/16 05:22:43;;;;;;;;;;;6.90;99.90;;;;;;6341080;22;20314;-91
2023/03/16 05:25:21;;;;;;;;;;;7.10;99.90;;;;;;6341260;22;19903;-90
2023/03/16 05:27:53;;;;;;;;;;;6.80;99.90;;;;;;6341177;22;19921;-92
2023/03/16 05:30:20;;;;;;;;;;;6.90;99.90;;;;;;6340313;22;19963;-91
2023/03/16 05:32:56;;;;;;;;;;;6.80;99.90;;;;;;6322356;22;20320;-91
2023/03/16 05:35:22;;;;;;;;;;;6.80;99.90;;;;;;6312801;22;19919;-91
2023/03/16 05:37:50;;;;;;;;;;;6.70;99.90;;;;;;6341250;22;19907;-91
2023/03/16 05:40:21;;;;;;;;;;;6.30;99.90;;;;;;6340874;22;19977;-92
2023/03/16 05:42:51;;;;;;;;;;;6.70;99.90;;;;;;6312821;22;20211;-92
2023/03/16 05:45:16;;;;;;;;;;;6.70;99.90;;;;;;6340681;22;19909;-91
2023/03/16 05:47:48;;;;;;;;;;;6.70;99.90;;;;;;6340986;22;19902;-89
2023/03/16 05:50:15;;;;;;;;;;;6.70;99.90;;;;;;6340948;22;19911;-90
2023/03/16 05:52:47;;;;;;;;;;;7.20;99.90;;;;;;6340382;22;19906;-90
2023/03/16 05:55:16;;;;;;;;;;;7.50;99.90;;;;;;6340930;22;20216;-91
2023/03/16 05:57:48;;;;;;;;;;;6.50;99.90;;;;;;6340060;22;20350;-91
2023/03/16 06:00:19;;;;;;;;;;;6.60;99.90;;;;;;6341194;22;19902;-91
2023/03/16 06:02:50;;;;;;;;;;;6.50;99.90;;;;;;6340881;22;19903;-90
2023/03/16 06:05:17;;;;;;;;;;;6.50;99.90;;;;;;6340586;22;19902;-91
2023/03/16 06:07:45;;;;;;;;;;;6.70;99.90;;;;;;6340935;22;19956;-90
2023/03/16 06:10:11;;;;;;;;;;;6.90;99.90;;;;;;6341130;22;19911;-91
2023/03/16 06:12:43;;;;;;;;;;;7.20;99.90;;;;;;6341051;22;19910;-91
2023/03/16 06:15:10;;;;;;;;;;;6.60;99.90;;;;;;6338825;22;19938;-90
2023/03/16 06:20:11;;;;;;;;;;;6.60;99.90;;;;;;6314499;22;20262;-91
2023/03/16 06:25:12;;;;;;;;;;;6.20;99.90;;;;;;6337672;22;19911;-92
2023/03/16 06:30:05;;;;;;;;;;;6.60;99.90;;;;;;6338621;22;19963;-90
2023/03/16 06:35:28;;;;;;;;;;;7.40;99.90;;;;;;6262209;22;19909;-91
2023/03/16 06:38:02;;;;;;;;;;;6.70;99.90;;;;;;6340553;22;19903;-90
2023/03/16 06:40:34;;;;;;;;;;;6.00;99.90;;;;;;6339287;22;19945;-90
2023/03/16 06:43:04;;;;;;;;;;;6.60;99.90;;;;;;6339437;22;19926;-90
2023/03/16 06:49:13;;;;;;;;;;;;;;;;;;;;;
2023/03/16 06:52:16;;;;;;;;;;;;;;;;;;;;;
2023/03/16 06:55:11;;;;;;;;;;;6.30;99.90;;;;;;6028220;23;19976;-90
2023/03/16 06:57:40;;;;;;;;;;;6.50;99.90;;;;;;6124334;23;19912;-89
2023/03/16 07:00:10;;;;;;;;;;;6.00;99.90;;;;;;6125066;23;20362;-90
2023/03/16 07:02:39;;;;;;;;;;;6.50;99.90;;;;;;6123995;23;20270;-89
2023/03/16 07:05:09;;;;;;;;;;;6.50;99.90;;;;;;6125128;23;19905;-90
2023/03/16 07:07:37;;;;;;;;;;;6.50;99.90;;;;;;6124713;23;19919;-90
2023/03/16 07:13:14;;;;;;;;;;;;;;;;;;;;;
2023/03/16 07:16:00;;;;;;;;;;;6.40;99.90;;;;;;6075900;23;20429;-90
2023/03/16 07:18:31;;;;;;;;;;;6.60;99.90;;;;;;6124564;23;19915;-89
2023/03/16 07:21:03;;;;;;;;;;;6.60;99.90;;;;;;6124721;23;19911;-89
2023/03/16 07:23:29;;;;;;;;;;;6.70;99.90;;;;;;6124530;23;19905;-90
2023/03/16 07:25:58;;;;;;;;;;;6.70;99.90;;;;;;6293645;22;20239;-90
2023/03/16 07:28:32;;;;;;;;;;;7.70;99.90;;;;;;6339321;22;19938;-90
2023/03/16 07:31:06;;;;;;;;;;;7.50;99.90;;;;;;6339151;22;20307;-89
2023/03/16 07:33:34;;;;;;;;;;;7.40;99.90;;;;;;6339151;22;20379;-90
2023/03/16 07:36:05;;;;;;;;;;;7.80;99.90;;;;;;6339295;22;19907;-91
2023/03/16 07:38:39;;;;;;;;;;;6.80;99.90;;;;;;6339776;22;19903;-89
2023/03/16 07:41:05;;;;;;;;;;;6.80;99.90;;;;;;6339765;22;19926;-89
2023/03/16 07:46:40;;;;;;;;;;;6.90;99.90;;;;;;6338427;22;19909;-88
2023/03/16 07:49:08;;;;;;;;;;;7.10;99.90;;;;;;6339384;22;19903;-88
2023/03/16 08:10:20;;;;;;;;;;;;;;;;;;;;;
2023/03/16 08:18:59;;;;;;;;;;;;;;;;;;;;;
2023/03/16 08:24:14;;;;;;;;;;;7.30;99.90;;;;;;6336722;22;19989;-88
2023/03/16 08:26:43;;;;;;;;;;;7.30;99.90;;;;;;6340033;22;20385;-88
2023/03/16 09:26:34;;;;;;;;;;;8.00;99.90;;;;;;6308441;22;19918;-86
2023/03/16 09:58:19;;;;;;;;;;;7.90;99.90;;;;;;6338518;22;19932;-89
2023/03/16 10:01:03;;;;;;;;;;;;;;;;;;;;;
2023/03/16 10:33:25;;;;;;;;;;;8.90;99.90;;;;;;6334790;22;20285;-87
2023/03/16 10:36:25;;;;;;;;;;;;;;;;;;;;;
2023/03/16 10:39:27;;;;;;;;;;;;;;;;;;;;;
2023/03/16 10:42:15;;;;;;;;;;;10.40;99.90;;;;;;6087668;22;19971;-87
2023/03/16 10:44:55;;;;;;;;;;;9.10;99.90;;;;;;6306188;22;19923;-87
2023/03/16 10:50:30;;;;;;;;;;;9.90;99.90;;;;;;6335838;22;20331;-88
2023/03/16 15:54:16;;;;;;;;;;;14.80;96.60;;;;;;6227010;22;19921;-90
2023/03/16 15:56:44;;;;;;;;;;;14.70;96.50;;;;;;6338244;22;20338;-90
2023/03/16 16:00:03;;;;;;;;;;;14.60;97.40;;;;;;6338908;22;19903;-89
2023/03/16 16:57:17;;;;;;;;;;;13.90;97.70;;;;;;6343279;22;19930;-87
2023/03/16 18:36:48;;;;;;;;;;;11.90;99.90;;;;;;6340655;22;19916;-92
2023/03/16 18:39:48;;;;;;;;;;;11.80;99.90;;;;;;6340051;22;19918;-89
2023/03/16 19:34:51;;;;;;;;;;;11.40;99.90;;;;;;6299565;22;19919;-89
2023/03/16 19:37:18;;;;;;;;;;;11.30;99.90;;;;;;6339577;22;19914;-89
2023/03/16 19:42:20;;;;;;;;;;;11.40;99.90;;;;;;6308062;22;19937;-91
2023/03/16 19:44:52;;;;;;;;;;;11.40;99.90;;;;;;6337555;22;20023;-93
2023/03/16 20:35:38;;;;;;;;;;;10.90;99.90;;;;;;6296649;22;19925;-89
2023/03/16 21:20:43;;;;;;;;;;;10.40;99.90;;;;;;6297962;22;19934;31
2023/03/16 21:23:14;;;;;;;;;;;11.00;99.90;;;;;;6302295;22;19919;-88
2023/03/16 21:28:43;;;;;;;;;;;10.20;99.90;;;;;;6328396;22;20283;-88
2023/03/16 21:31:39;;;;;;;;;;;10.90;99.90;;;;;;6341389;22;19926;-93
2023/03/16 21:34:37;;;;;;;;;;;10.20;99.90;;;;;;6338030;22;19903;-92
2023/03/16 21:54:10;;;;;;;;;;;10.20;99.90;;;;;;6275169;22;19903;-90
2023/03/16 21:56:38;;;;;;;;;;;10.20;99.90;;;;;;6184323;23;19908;-89
2023/03/16 21:59:33;;;;;;;;;;;10.10;99.90;;;;;;6233373;23;20200;-92
2023/03/16 22:20:38;;;;;;;;;;;10.20;99.90;;;;;;6339708;22;20255;-93
2023/03/16 22:34:45;;;;;;;;;;;10.20;99.90;;;;;;6346342;22;19918;-89
2023/03/16 22:43:50;;;;;;;;;;;10.10;99.90;;;;;;6243738;23;19915;-90
2023/03/16 22:52:22;;;;;;;;;;;10.10;99.90;;;;;;6333752;22;19919;-86
2023/03/16 22:54:50;;;;;;;;;;;10.00;99.90;;;;;;6339327;22;19909;-88
2023/03/16 22:57:31;;;;;;;;;;;10.30;99.90;;;;;;6339055;22;19909;-89
2023/03/16 23:11:52;;;;;;;;;;;9.90;99.90;;;;;;6213046;23;20260;-92
2023/03/16 23:14:20;;;;;;;;;;;9.30;99.90;;;;;;6214137;23;19911;-92
2023/03/16 23:16:46;;;;;;;;;;;10.80;99.90;;;;;;6214026;23;19904;-91
2023/03/16 23:19:26;;;;;;;;;;;10.30;99.90;;;;;;6213557;23;20256;-90
2023/03/16 23:22:33;;;;;;;;;;;;;;;;;;;;;
2023/03/16 23:25:12;;;;;;;;;;;10.80;99.90;;;;;;6130303;22;19993;-88
2023/03/16 23:28:24;;;;;;;;;;;9.90;99.90;;;;;;6274707;22;20351;-90
2023/03/16 23:30:50;;;;;;;;;;;9.10;99.90;;;;;;6277337;22;20200;-90
2023/03/16 23:33:21;;;;;;;;;;;9.90;99.90;;;;;;6277185;22;20296;-90
2023/03/16 23:35:53;;;;;;;;;;;10.70;99.90;;;;;;6277973;22;19908;-90
2023/03/16 23:38:21;;;;;;;;;;;9.90;99.90;;;;;;6277234;22;20304;-89
2023/03/16 23:43:21;;;;;;;;;;;9.90;99.90;;;;;;6336626;22;19932;-89
2023/03/16 23:48:22;;;;;;;;;;;9.90;99.90;;;;;;6310026;22;19926;-88
2023/03/16 23:50:50;;;;;;;;;;;9.90;99.90;;;;;;6323655;22;20245;-87
2023/03/16 23:53:22;;;;;;;;;;;9.80;99.90;;;;;;6335697;22;20201;-87
2023/03/16 23:59:30;;;;;;;;;;;9.80;99.90;;;;;;6327751;22;20326;-88
